Darien, Wisconsin
Current Conditions -  °F | °C
As of 1:45 PM on Thursday 30 Oct 2014 (Local Time) from KJVL Reporting Station
Overcast Overcast  
Wind Chill: 52°   Ceiling: 11000
Heat Index: 52°   Visibility: 10mi
Dew Point: 34°   Wind: 6mph
Humidity: 50%   Direction: 270°W
Pressure: 30.05"   Gusts: NA
Location:  42.6°N, 88.71°W
Report Text: KJVL 301845Z 27005KT 10SM BKN110 OVC120 11/01 A3005
Loading
Personal Weather Stations






























Interactive Weather Map
Tropical Storm Tracking
New forecast layout! Learn more

10-Day Weather Forecast

Advertisements
Track Severe Weather on mobile